createdAt,value
2022-10-18T00:02:06.480Z,101594.47
2022-10-18T00:04:33.656Z,101600.34
2022-10-18T00:07:00.039Z,101597.91
2022-10-18T00:09:26.748Z,101603.69
2022-10-18T00:11:53.719Z,101596.09
2022-10-18T00:14:20.174Z,101600.25
2022-10-18T00:16:46.488Z,101599.84
2022-10-18T00:19:12.860Z,101597.22
2022-10-18T00:21:39.328Z,101601.56
2022-10-18T00:24:06.080Z,101595.16
2022-10-18T00:26:32.412Z,101597.22
2022-10-18T00:29:05.028Z,101598.38
2022-10-18T00:31:34.450Z,101604.19
2022-10-18T00:34:06.278Z,101606.19
2022-10-18T00:36:34.020Z,101604.56
2022-10-18T00:39:01.845Z,101607.50
2022-10-18T00:41:31.775Z,101610.34
2022-10-18T00:44:07.295Z,101611.44
2022-10-18T00:46:43.389Z,101612.34
2022-10-18T00:49:16.996Z,101611.44
2022-10-18T00:51:51.996Z,101610.03
2022-10-18T00:54:20.621Z,101603.25
2022-10-18T00:56:46.988Z,101600.03
2022-10-18T00:59:16.306Z,101590.09
2022-10-18T01:01:43.120Z,101593.03
2022-10-18T01:04:10.148Z,101590.50
2022-10-18T01:09:33.903Z,101584.41
2022-10-18T01:12:09.358Z,101588.88
2022-10-18T01:14:49.747Z,101587.44
2022-10-18T01:17:18.704Z,101585.03
2022-10-18T01:20:07.128Z,101573.47
2022-10-18T01:22:48.658Z,101576.50
2022-10-18T01:25:57.061Z,101576.50
2022-10-18T01:28:50.117Z,101573.47
2022-10-18T01:31:31.811Z,101567.59
2022-10-18T01:36:42.590Z,101570.13
2022-10-18T01:39:14.319Z,101567.69
2022-10-18T01:41:43.219Z,101575.94
2022-10-18T01:44:15.014Z,101563.28
2022-10-18T01:46:42.799Z,101554.84
2022-10-18T01:49:09.109Z,101553.84
2022-10-18T01:51:35.547Z,101557.81
2022-10-18T01:54:02.398Z,101554.84
2022-10-18T01:56:41.065Z,101552.81
2022-10-18T01:59:45.166Z,101552.81
2022-10-18T02:02:33.266Z,101560.19
2022-10-18T02:05:24.657Z,101550.97
2022-10-18T02:08:22.733Z,101549.97
2022-10-18T02:11:10.708Z,101551.75
2022-10-18T02:13:42.573Z,101553.59
2022-10-18T02:16:13.777Z,101556.06
2022-10-18T02:18:44.283Z,101552.47
2022-10-18T02:21:13.397Z,101555.03
2022-10-18T02:23:39.729Z,101556.06
2022-10-18T02:26:06.642Z,101564.84
2022-10-18T02:28:33.031Z,101557.34
2022-10-18T02:31:20.746Z,101557.25
2022-10-18T02:33:47.020Z,101549.13
2022-10-18T02:36:38.898Z,101548.94
2022-10-18T02:39:11.559Z,101552.81
2022-10-18T02:41:38.060Z,101551.16
2022-10-18T02:44:04.551Z,101550.97
2022-10-18T02:46:30.923Z,101552.59
2022-10-18T02:48:57.247Z,101541.84
2022-10-18T02:51:23.690Z,101550.34
2022-10-18T02:53:50.002Z,101550.34
2022-10-18T02:56:16.367Z,101548.75
2022-10-18T02:58:42.707Z,101547.13
2022-10-18T03:01:09.117Z,101547.72
2022-10-18T03:03:35.466Z,101542.47
2022-10-18T03:06:01.773Z,101544.78
2022-10-18T03:08:28.165Z,101539.84
2022-10-18T03:10:54.494Z,101540.94
2022-10-18T03:13:21.047Z,101534.38
2022-10-18T03:15:48.117Z,101538.03
2022-10-18T03:18:15.028Z,101539.41
2022-10-18T03:20:41.392Z,101537.28
2022-10-18T03:23:07.715Z,101530.09
2022-10-18T03:25:34.337Z,101536.78
2022-10-18T03:28:00.878Z,101531.81
2022-10-18T03:30:27.337Z,101527.88
2022-10-18T03:32:53.634Z,101531.50
2022-10-18T03:35:20.441Z,101527.44
2022-10-18T03:37:46.838Z,101521.75
2022-10-18T03:40:13.242Z,101517.91
2022-10-18T03:42:39.569Z,101521.16
2022-10-18T03:45:06.401Z,101523.81
2022-10-18T03:47:32.750Z,101527.34
2022-10-18T03:49:59.073Z,101529.16
2022-10-18T03:52:25.449Z,101521.38
2022-10-18T03:54:51.754Z,101524.22
2022-10-18T03:57:18.086Z,101518.31
2022-10-18T03:59:44.429Z,101522.47
2022-10-18T04:02:10.802Z,101523.28
2022-10-18T04:04:37.111Z,101525.13
2022-10-18T04:07:03.431Z,101530.28
2022-10-18T04:09:29.786Z,101536.34
2022-10-18T04:11:56.109Z,101542.63
2022-10-18T04:14:22.412Z,101537.97
2022-10-18T04:16:48.753Z,101529.47
2022-10-18T04:19:15.150Z,101526.09
2022-10-18T04:21:41.486Z,101527.81
2022-10-18T04:24:07.818Z,101523.44
2022-10-18T04:26:34.155Z,101524.78
2022-10-18T04:29:00.562Z,101526.09
2022-10-18T04:31:27.058Z,101528.44
2022-10-18T04:33:53.548Z,101541.06
2022-10-18T04:36:19.884Z,101539.72
2022-10-18T04:38:46.243Z,101528.78
2022-10-18T04:41:12.568Z,101536.97
2022-10-18T04:43:38.971Z,101538.94
2022-10-18T04:46:05.411Z,101535.91
2022-10-18T04:48:31.750Z,101534.81
2022-10-18T04:50:58.090Z,101543.53
2022-10-18T04:53:24.549Z,101533.97
2022-10-18T04:55:51.469Z,101526.53
2022-10-18T04:58:18.431Z,101529.78
2022-10-18T05:00:45.227Z,101535.69
2022-10-18T05:03:13.760Z,101525.03
2022-10-18T05:06:00.300Z,101535.25
2022-10-18T05:08:26.828Z,101529.78
2022-10-18T05:10:53.226Z,101533.03
2022-10-18T05:13:19.579Z,101538.50
2022-10-18T05:15:46.615Z,101535.25
2022-10-18T05:18:13.082Z,101538.31
2022-10-18T05:20:39.438Z,101542.16
2022-10-18T05:23:05.776Z,101550.16
2022-10-18T05:25:32.155Z,101540.88
2022-10-18T05:28:00.947Z,101545.16
2022-10-18T05:30:29.614Z,101547.81
2022-10-18T05:32:55.936Z,101538.44
2022-10-18T05:35:22.299Z,101544.09
2022-10-18T05:37:48.652Z,101546.75
2022-10-18T05:40:15.019Z,101545.31
2022-10-18T05:42:41.353Z,101552.13
2022-10-18T05:45:08.393Z,101541.50
2022-10-18T05:50:07.244Z,101546.38
2022-10-18T05:52:33.988Z,101548.78
2022-10-18T05:55:00.646Z,101548.19
2022-10-18T05:57:26.990Z,101556.09
2022-10-18T05:59:53.315Z,101552.75
2022-10-18T06:02:19.835Z,101550.84
2022-10-18T06:04:46.199Z,101550.09
2022-10-18T06:07:12.619Z,101551.03
2022-10-18T06:09:38.967Z,101553.53
2022-10-18T06:12:05.555Z,101560.78
2022-10-18T06:14:31.932Z,101561.72
2022-10-18T06:16:58.256Z,101562.50
2022-10-18T06:19:24.563Z,101565.16
2022-10-18T06:21:50.887Z,101567.31
2022-10-18T06:24:17.226Z,101573.59
2022-10-18T06:26:43.687Z,101576.00
2022-10-18T06:29:10.283Z,101577.03
2022-10-18T06:31:36.634Z,101589.53
2022-10-18T06:34:02.959Z,101586.78
2022-10-18T06:36:29.274Z,101585.66
2022-10-18T06:38:55.610Z,101587.81
2022-10-18T06:41:22.395Z,101592.47
2022-10-18T06:43:49.660Z,101589.94
2022-10-18T06:46:16.443Z,101596.44
2022-10-18T06:48:42.753Z,101585.44
2022-10-18T06:51:09.913Z,101590.06
2022-10-18T06:53:44.183Z,101591.63
2022-10-18T06:56:19.743Z,101598.38
2022-10-18T06:58:46.144Z,101590.78
2022-10-18T07:01:15.116Z,101598.78
2022-10-18T07:03:41.774Z,101589.47
2022-10-18T07:06:10.755Z,101594.75
2022-10-18T07:08:38.483Z,101600.88
2022-10-18T07:11:06.417Z,101606.56
2022-10-18T07:13:33.605Z,101605.13
2022-10-18T07:16:05.267Z,101604.94
2022-10-18T07:18:36.832Z,101603.63
2022-10-18T07:21:05.355Z,101613.38
2022-10-18T07:23:42.266Z,101618.06
2022-10-18T07:26:34.181Z,101615.53
2022-10-18T07:29:10.011Z,101621.91
2022-10-18T07:31:37.315Z,101617.94
2022-10-18T07:34:05.295Z,101618.34
2022-10-18T07:36:31.920Z,101623.22
2022-10-18T07:38:58.426Z,101621.00
2022-10-18T07:41:25.060Z,101626.97
2022-10-18T07:43:52.849Z,101635.28
2022-10-18T07:46:20.945Z,101640.66
2022-10-18T07:48:47.703Z,101643.63
2022-10-18T07:51:14.577Z,101647.59
2022-10-18T07:53:41.066Z,101644.56
2022-10-18T07:56:13.451Z,101648.72
2022-10-18T07:58:39.786Z,101649.31
2022-10-18T08:01:07.847Z,101647.66
2022-10-18T08:03:35.480Z,101650.38
2022-10-18T08:06:03.132Z,101648.75
2022-10-18T08:08:30.101Z,101656.25
2022-10-18T08:11:02.123Z,101645.09
2022-10-18T08:13:29.182Z,101654.63
2022-10-18T08:16:06.791Z,101653.28
2022-10-18T08:18:33.746Z,101653.34
2022-10-18T08:21:01.422Z,101657.38
2022-10-18T08:23:27.760Z,101653.59
2022-10-18T08:25:54.363Z,101647.13
2022-10-18T08:28:21.018Z,101642.66
2022-10-18T08:30:47.349Z,101642.03
2022-10-18T08:33:13.672Z,101646.31
2022-10-18T08:35:40.024Z,101649.69
2022-10-18T08:38:06.335Z,101648.34
2022-10-18T08:40:33.901Z,101645.16
2022-10-18T08:43:10.449Z,101658.38
2022-10-18T08:45:42.657Z,101654.28
2022-10-18T08:48:32.766Z,101665.44
2022-10-18T08:51:00.136Z,101658.13
2022-10-18T08:53:34.051Z,101664.00
2022-10-18T08:56:11.761Z,101660.97
2022-10-18T08:58:39.084Z,101669.88
2022-10-18T09:01:46.439Z,101657.88
2022-10-18T09:04:34.939Z,101667.78
2022-10-18T09:07:03.964Z,101674.16
2022-10-18T09:10:01.400Z,101672.44
2022-10-18T09:12:49.114Z,101666.50
2022-10-18T09:15:36.858Z,101668.38
2022-10-18T09:18:13.245Z,101680.00
2022-10-18T09:21:05.207Z,101680.66
2022-10-18T09:23:39.697Z,101689.78
2022-10-18T09:26:13.701Z,101689.16
2022-10-18T09:29:05.695Z,101692.44
2022-10-18T09:31:40.909Z,101690.22
2022-10-18T09:34:29.967Z,101693.94
2022-10-18T09:36:57.135Z,101695.19
2022-10-18T09:39:31.111Z,101694.06
2022-10-18T09:42:03.795Z,101698.28
2022-10-18T09:44:48.765Z,101698.38
2022-10-18T09:50:06.082Z,101707.25
2022-10-18T09:52:44.403Z,101695.91
2022-10-18T09:55:22.222Z,101694.66
2022-10-18T09:57:54.510Z,101704.31
2022-10-18T10:00:27.995Z,101711.91
2022-10-18T10:02:54.796Z,101707.38
2022-10-18T10:05:21.110Z,101708.88
2022-10-18T10:07:49.446Z,101711.91
2022-10-18T10:10:23.743Z,101707.66
2022-10-18T10:13:02.726Z,101702.78
2022-10-18T10:15:33.057Z,101696.19
2022-10-18T10:18:24.842Z,101696.63
2022-10-18T10:20:59.818Z,101694.16
2022-10-18T10:23:30.307Z,101702.59
2022-10-18T10:26:02.583Z,101704.69
2022-10-18T10:28:32.768Z,101706.53
2022-10-18T10:31:24.194Z,101711.22
2022-10-18T10:34:14.114Z,101716.97
2022-10-18T10:36:54.764Z,101707.00
2022-10-18T10:39:23.704Z,101708.41
2022-10-18T10:41:56.378Z,101712.28
2022-10-18T10:44:25.720Z,101714.41
2022-10-18T10:46:53.132Z,101709.41
2022-10-18T10:52:36.863Z,101705.41
2022-10-18T10:55:11.296Z,101716.25
2022-10-18T10:57:51.487Z,101719.25
2022-10-18T11:00:44.507Z,101716.44
2022-10-18T11:03:28.060Z,101713.66
2022-10-18T11:05:56.093Z,101720.91
2022-10-18T11:08:26.467Z,101729.50
2022-10-18T11:11:22.890Z,101728.75
2022-10-18T11:14:07.296Z,101720.19
2022-10-18T11:16:55.633Z,101715.72
2022-10-18T11:19:37.111Z,101712.84
2022-10-18T11:22:06.392Z,101709.78
2022-10-18T11:24:35.233Z,101711.91
2022-10-18T11:27:26.890Z,101711.81
2022-10-18T11:29:59.280Z,101701.44
2022-10-18T11:32:38.459Z,101698.75
2022-10-18T11:35:38.692Z,101706.31
2022-10-18T11:38:32.649Z,101692.69
2022-10-18T11:41:10.382Z,101694.22
2022-10-18T11:44:01.237Z,101700.63
2022-10-18T11:46:43.423Z,101695.75
2022-10-18T11:49:34.155Z,101691.19
2022-10-18T11:52:24.700Z,101696.22
2022-10-18T11:55:20.223Z,101688.00
2022-10-18T11:57:50.111Z,101690.09
2022-10-18T12:00:32.843Z,101687.84
2022-10-18T12:03:13.934Z,101690.25
2022-10-18T12:05:42.773Z,101686.72
2022-10-18T12:08:14.706Z,101682.97
2022-10-18T12:11:05.807Z,101688.56
2022-10-18T12:13:32.616Z,101685.25
2022-10-18T12:16:02.079Z,101685.00
2022-10-18T12:18:31.634Z,101688.63
2022-10-18T12:20:59.914Z,101692.72
2022-10-18T12:23:29.303Z,101684.03
2022-10-18T12:26:01.799Z,101689.03
2022-10-18T12:28:51.251Z,101686.78
2022-10-18T12:31:24.097Z,101684.25
2022-10-18T12:33:56.237Z,101682.31
2022-10-18T12:36:22.506Z,101676.97
2022-10-18T12:38:57.151Z,101681.34
2022-10-18T12:41:27.787Z,101670.47
2022-10-18T12:44:06.743Z,101671.16
2022-10-18T12:46:50.349Z,101678.59
2022-10-18T12:49:40.206Z,101669.72
2022-10-18T12:52:26.700Z,101669.69
2022-10-18T12:55:16.707Z,101668.91
2022-10-18T12:57:52.781Z,101656.91
2022-10-18T13:00:31.271Z,101658.41
2022-10-18T13:03:26.833Z,101667.16
2022-10-18T13:05:59.317Z,101658.72
2022-10-18T13:08:28.982Z,101653.22
2022-10-18T13:11:01.474Z,101671.06
2022-10-18T13:13:43.131Z,101662.78
2022-10-18T13:16:23.992Z,101662.16
2022-10-18T13:19:14.152Z,101674.03
2022-10-18T13:21:53.578Z,101665.94
2022-10-18T13:24:35.641Z,101670.53
2022-10-18T13:27:34.894Z,101678.00
2022-10-18T13:30:09.924Z,101677.19
2022-10-18T13:32:59.055Z,101678.13
2022-10-18T13:35:52.447Z,101685.84
2022-10-18T13:38:54.060Z,101679.59
2022-10-18T13:43:53.580Z,101682.50
2022-10-18T13:46:21.114Z,101684.03
2022-10-18T13:48:49.774Z,101683.31
2022-10-18T13:51:32.338Z,101699.16
2022-10-18T13:54:17.140Z,101688.34
2022-10-18T13:56:54.448Z,101687.78
2022-10-18T14:02:50.992Z,101687.00
2022-10-18T14:05:36.575Z,101697.72
2022-10-18T14:08:11.103Z,101688.44
2022-10-18T14:11:02.399Z,101688.56
2022-10-18T14:13:43.758Z,101689.72
2022-10-18T14:16:47.638Z,101695.91
2022-10-18T14:19:13.898Z,101698.00
2022-10-18T14:21:47.654Z,101694.56
2022-10-18T14:24:20.308Z,101702.94
2022-10-18T14:26:46.930Z,101707.28
2022-10-18T14:29:18.822Z,101714.28
2022-10-18T14:31:53.949Z,101709.47
2022-10-18T14:34:21.031Z,101714.78
2022-10-18T14:36:49.324Z,101709.19
2022-10-18T14:39:21.913Z,101704.94
2022-10-18T14:41:54.044Z,101713.72
2022-10-18T14:44:26.296Z,101702.75
2022-10-18T14:46:59.716Z,101716.41
2022-10-18T14:49:26.177Z,101710.53
2022-10-18T14:51:55.654Z,101716.41
2022-10-18T14:54:32.470Z,101711.47
2022-10-18T14:57:00.577Z,101699.44
2022-10-18T14:59:29.725Z,101711.66
2022-10-18T15:01:55.982Z,101700.78
2022-10-18T15:04:27.783Z,101703.13
2022-10-18T15:06:55.453Z,101708.72
2022-10-18T15:09:24.366Z,101711.34
2022-10-18T15:11:51.396Z,101710.66
2022-10-18T15:14:20.106Z,101706.66
2022-10-18T15:16:48.703Z,101712.44
2022-10-18T15:19:14.962Z,101714.13
2022-10-18T15:22:33.887Z,101722.88
2022-10-18T15:25:10.922Z,101715.75
2022-10-18T15:27:39.330Z,101728.47
2022-10-18T15:30:08.544Z,101720.84
2022-10-18T15:32:35.097Z,101719.16
2022-10-18T15:35:15.738Z,101712.72
2022-10-18T15:37:44.837Z,101712.44
2022-10-18T15:40:23.063Z,101716.41
2022-10-18T15:42:50.746Z,101717.41
2022-10-18T15:45:26.279Z,101724.00
2022-10-18T15:48:07.824Z,101721.03
2022-10-18T15:50:41.777Z,101716.38
2022-10-18T15:53:20.412Z,101722.63
2022-10-18T15:56:05.475Z,101715.75
2022-10-18T15:58:45.503Z,101722.31
2022-10-18T16:01:14.727Z,101720.75
2022-10-18T16:03:41.459Z,101724.44
2022-10-18T16:06:12.355Z,101725.16
2022-10-18T16:08:43.787Z,101728.69
2022-10-18T16:11:19.141Z,101730.16
2022-10-18T16:13:45.913Z,101727.50
2022-10-18T16:16:16.728Z,101731.28
2022-10-18T16:18:43.054Z,101733.50
2022-10-18T16:21:24.987Z,101734.75
2022-10-18T16:23:51.555Z,101742.53
2022-10-18T16:26:19.579Z,101747.03
2022-10-18T16:28:46.650Z,101746.28
2022-10-18T16:31:17.431Z,101754.41
2022-10-18T16:33:44.616Z,101744.88
2022-10-18T16:36:19.137Z,101742.19
2022-10-18T16:38:46.199Z,101747.66
2022-10-18T16:41:12.635Z,101750.28
2022-10-18T16:43:39.551Z,101752.38
2022-10-18T16:46:07.263Z,101760.16
2022-10-18T16:48:34.067Z,101759.41
2022-10-18T16:51:01.240Z,101761.16
2022-10-18T16:53:27.745Z,101767.91
2022-10-18T16:55:59.709Z,101767.91
2022-10-18T16:58:28.023Z,101772.34
2022-10-18T17:00:54.922Z,101774.94
2022-10-18T17:03:21.526Z,101779.22
2022-10-18T17:05:47.878Z,101782.72
2022-10-18T17:08:23.238Z,101784.16
2022-10-18T17:10:51.435Z,101777.88
2022-10-18T17:13:17.739Z,101779.56
2022-10-18T17:15:44.522Z,101773.13
2022-10-18T17:18:16.780Z,101782.97
2022-10-18T17:20:43.460Z,101792.25
2022-10-18T17:23:09.994Z,101795.84
2022-10-18T17:25:46.230Z,101803.19
2022-10-18T17:28:23.983Z,101804.84
2022-10-18T17:30:50.301Z,101810.56
2022-10-18T17:33:16.595Z,101821.72
2022-10-18T17:35:44.023Z,101821.34
2022-10-18T17:38:10.935Z,101819.75
2022-10-18T17:40:41.034Z,101830.91
2022-10-18T17:43:07.695Z,101828.47
2022-10-18T17:45:34.045Z,101828.19
2022-10-18T17:48:00.376Z,101842.91
2022-10-18T17:50:29.501Z,101835.84
2022-10-18T17:52:55.876Z,101834.72
2022-10-18T17:55:22.188Z,101826.06
2022-10-18T17:57:48.487Z,101829.09
2022-10-18T18:00:14.873Z,101826.09
2022-10-18T18:02:42.080Z,101821.69
2022-10-18T18:05:09.052Z,101821.97
2022-10-18T18:07:35.593Z,101829.03
2022-10-18T18:10:02.780Z,101833.16
2022-10-18T18:12:29.077Z,101838.06
2022-10-18T18:14:55.593Z,101842.44
2022-10-18T18:17:33.634Z,101830.44
2022-10-18T18:20:00.960Z,101839.41
2022-10-18T18:22:27.266Z,101840.19
2022-10-18T18:24:53.562Z,101842.34
2022-10-18T18:27:19.891Z,101838.25
2022-10-18T18:29:46.205Z,101843.66
2022-10-18T18:32:12.531Z,101832.78
2022-10-18T18:34:38.845Z,101833.53
2022-10-18T18:37:05.162Z,101830.47
2022-10-18T18:39:31.464Z,101843.44
2022-10-18T18:41:57.797Z,101839.84
2022-10-18T18:44:24.115Z,101849.28
2022-10-18T18:46:50.433Z,101855.41
2022-10-18T18:49:16.803Z,101861.28
2022-10-18T18:51:43.194Z,101854.06
2022-10-18T18:54:11.539Z,101855.81
2022-10-18T18:56:38.014Z,101855.81
2022-10-18T18:59:05.152Z,101849.03
2022-10-18T19:01:34.632Z,101851.13
2022-10-18T19:04:01.457Z,101853.84
2022-10-18T19:06:30.931Z,101858.91
2022-10-18T19:08:58.547Z,101856.38
2022-10-18T19:11:24.860Z,101862.97
2022-10-18T19:13:51.256Z,101856.63
2022-10-18T19:16:21.812Z,101856.81
2022-10-18T19:19:00.163Z,101859.53
2022-10-18T19:21:30.152Z,101866.03
2022-10-18T19:23:57.491Z,101868.19
2022-10-18T19:26:31.115Z,101868.75
2022-10-18T19:29:09.659Z,101877.78
2022-10-18T19:31:36.387Z,101872.25
2022-10-18T19:34:07.879Z,101875.19
2022-10-18T19:36:35.155Z,101870.41
2022-10-18T19:39:02.304Z,101870.72
2022-10-18T19:41:36.872Z,101869.09
2022-10-18T19:44:03.389Z,101883.84
2022-10-18T19:46:29.796Z,101880.38
2022-10-18T19:48:56.130Z,101884.16
2022-10-18T19:51:26.844Z,101886.31
2022-10-18T19:53:55.112Z,101880.06
2022-10-18T19:56:23.099Z,101879.75
2022-10-18T19:58:49.900Z,101886.44
2022-10-18T20:01:17.472Z,101880.75
2022-10-18T20:03:44.236Z,101879.03
2022-10-18T20:06:10.937Z,101892.59
2022-10-18T20:08:38.052Z,101893.16
2022-10-18T20:11:07.765Z,101884.03
2022-10-18T20:13:35.034Z,101883.47
2022-10-18T20:16:04.892Z,101881.31
2022-10-18T20:18:31.458Z,101879.03
2022-10-18T20:20:57.773Z,101876.91
2022-10-18T20:23:24.139Z,101879.47
2022-10-18T20:26:01.382Z,101881.06
2022-10-18T20:28:28.034Z,101885.44
2022-10-18T20:31:02.736Z,101889.50
2022-10-18T20:33:29.146Z,101900.16
2022-10-18T20:35:55.640Z,101892.69
2022-10-18T20:38:22.262Z,101891.28
2022-10-18T20:40:48.572Z,101891.63
2022-10-18T20:43:14.935Z,101893.09
2022-10-18T20:45:41.235Z,101887.19
2022-10-18T20:48:07.562Z,101890.97
2022-10-18T20:50:33.887Z,101890.06
2022-10-18T20:53:00.239Z,101897.09
2022-10-18T20:55:28.801Z,101895.16
2022-10-18T20:57:55.135Z,101906.59
2022-10-18T21:00:21.440Z,101905.06
2022-10-18T21:02:47.756Z,101898.34
2022-10-18T21:05:14.126Z,101900.63
2022-10-18T21:07:40.493Z,101904.69
2022-10-18T21:10:07.161Z,101902.69
2022-10-18T21:12:35.059Z,101905.31
2022-10-18T21:15:01.814Z,101900.28
2022-10-18T21:17:28.116Z,101890.59
2022-10-18T21:19:54.431Z,101896.97
2022-10-18T21:22:20.767Z,101898.47
2022-10-18T21:24:47.097Z,101893.94
2022-10-18T21:27:13.400Z,101894.75
2022-10-18T21:29:39.720Z,101895.41
2022-10-18T21:32:06.071Z,101897.88
2022-10-18T21:34:32.557Z,101902.84
2022-10-18T21:36:58.873Z,101899.19
2022-10-18T21:39:25.372Z,101900.97
2022-10-18T21:41:51.860Z,101907.78
2022-10-18T21:44:18.474Z,101905.84
2022-10-18T21:46:45.308Z,101904.84
2022-10-18T21:49:12.387Z,101910.75
2022-10-18T21:51:39.353Z,101906.31
2022-10-18T21:54:08.356Z,101907.47
2022-10-18T21:56:35.774Z,101910.75
2022-10-18T21:59:03.137Z,101904.59
2022-10-18T22:01:34.534Z,101898.44
2022-10-18T22:04:03.346Z,101901.41
2022-10-18T22:06:31.779Z,101898.41
2022-10-18T22:09:01.282Z,101901.03
2022-10-18T22:11:31.250Z,101905.28
2022-10-18T22:13:58.039Z,101893.00
2022-10-18T22:16:25.446Z,101893.38
2022-10-18T22:18:56.270Z,101892.34
2022-10-18T22:21:22.626Z,101888.78
2022-10-18T22:23:51.320Z,101892.78
2022-10-18T22:26:24.001Z,101879.75
2022-10-18T22:28:58.649Z,101888.44
2022-10-18T22:31:28.187Z,101882.34
2022-10-18T22:33:59.607Z,101880.34
2022-10-18T22:36:27.457Z,101881.00
2022-10-18T22:38:54.167Z,101884.31
2022-10-18T22:41:20.576Z,101877.16
2022-10-18T22:43:47.537Z,101873.38
2022-10-18T22:46:14.998Z,101880.34
2022-10-18T22:48:41.839Z,101875.31
2022-10-18T22:51:08.570Z,101872.16
2022-10-18T22:53:35.772Z,101878.38
2022-10-18T22:56:02.546Z,101871.81
2022-10-18T22:58:29.206Z,101867.81
2022-10-18T23:01:07.496Z,101868.06
2022-10-18T23:03:35.072Z,101864.97
2022-10-18T23:06:02.238Z,101864.34
2022-10-18T23:08:29.776Z,101865.88
2022-10-18T23:10:59.072Z,101862.91
2022-10-18T23:13:26.860Z,101861.97
2022-10-18T23:15:53.493Z,101866.53
2022-10-18T23:18:19.877Z,101870.47
2022-10-18T23:20:46.172Z,101875.91
2022-10-18T23:23:13.109Z,101872.94
2022-10-18T23:25:39.491Z,101869.09
2022-10-18T23:28:06.457Z,101874.41
2022-10-18T23:30:32.934Z,101870.91
2022-10-18T23:32:59.257Z,101875.84
2022-10-18T23:35:25.682Z,101884.78
2022-10-18T23:37:52.168Z,101869.53
2022-10-18T23:40:18.485Z,101872.81
2022-10-18T23:42:44.795Z,101859.41
2022-10-18T23:45:11.187Z,101857.06
2022-10-18T23:47:37.539Z,101861.31
2022-10-18T23:50:04.437Z,101868.25
2022-10-18T23:52:30.761Z,101872.69
2022-10-18T23:54:57.088Z,101860.72
2022-10-18T23:57:23.394Z,101860.38
2022-10-18T23:59:49.731Z,101854.84
